sensor_id;sensor_type;location;lat;lon;timestamp;P1;durP1;ratioP1;P2;durP2;ratioP2
24826;SDS011;12910;57.690;11.974;2022-12-07T00:01:26;11.47;;;4.40;;
24826;SDS011;12910;57.690;11.974;2022-12-07T00:03:54;6.60;;;4.70;;
24826;SDS011;12910;57.690;11.974;2022-12-07T00:06:29;11.07;;;4.57;;
24826;SDS011;12910;57.690;11.974;2022-12-07T00:08:55;4.00;;;3.70;;
24826;SDS011;12910;57.690;11.974;2022-12-07T00:11:21;4.47;;;3.93;;
24826;SDS011;12910;57.690;11.974;2022-12-07T00:13:50;4.20;;;3.90;;
24826;SDS011;12910;57.690;11.974;2022-12-07T00:16:19;4.93;;;4.63;;
24826;SDS011;12910;57.690;11.974;2022-12-07T00:18:46;5.20;;;3.20;;
24826;SDS011;12910;57.690;11.974;2022-12-07T00:21:12;4.70;;;4.37;;
24826;SDS011;12910;57.690;11.974;2022-12-07T00:23:43;4.00;;;3.70;;
24826;SDS011;12910;57.690;11.974;2022-12-07T00:26:11;4.57;;;3.80;;
24826;SDS011;12910;57.690;11.974;2022-12-07T00:28:36;4.60;;;4.17;;
24826;SDS011;12910;57.690;11.974;2022-12-07T00:31:03;5.13;;;4.73;;
24826;SDS011;12910;57.690;11.974;2022-12-07T00:33:31;3.37;;;3.07;;
24826;SDS011;12910;57.690;11.974;2022-12-07T00:35:58;7.33;;;3.77;;
24826;SDS011;12910;57.690;11.974;2022-12-07T00:38:24;5.87;;;4.50;;
24826;SDS011;12910;57.690;11.974;2022-12-07T00:40:58;3.93;;;3.43;;
24826;SDS011;12910;57.690;11.974;2022-12-07T00:43:25;5.83;;;4.50;;
24826;SDS011;12910;57.690;11.974;2022-12-07T00:45:52;4.67;;;4.27;;
24826;SDS011;12910;57.690;11.974;2022-12-07T00:48:18;3.83;;;3.53;;
24826;SDS011;12910;57.690;11.974;2022-12-07T00:50:43;4.40;;;4.00;;
24826;SDS011;12910;57.690;11.974;2022-12-07T00:53:08;5.23;;;3.50;;
24826;SDS011;12910;57.690;11.974;2022-12-07T00:55:34;4.33;;;3.93;;
24826;SDS011;12910;57.690;11.974;2022-12-07T00:58:01;10.33;;;4.47;;
24826;SDS011;12910;57.690;11.974;2022-12-07T01:00:26;4.47;;;4.07;;
24826;SDS011;12910;57.690;11.974;2022-12-07T01:02:52;3.83;;;3.30;;
24826;SDS011;12910;57.690;11.974;2022-12-07T01:05:17;5.43;;;3.77;;
24826;SDS011;12910;57.690;11.974;2022-12-07T01:07:43;4.23;;;3.90;;
24826;SDS011;12910;57.690;11.974;2022-12-07T01:10:08;4.10;;;3.70;;
24826;SDS011;12910;57.690;11.974;2022-12-07T01:12:34;4.53;;;3.10;;
24826;SDS011;12910;57.690;11.974;2022-12-07T01:14:59;3.60;;;3.17;;
24826;SDS011;12910;57.690;11.974;2022-12-07T01:17:25;4.57;;;3.53;;
24826;SDS011;12910;57.690;11.974;2022-12-07T01:19:50;4.00;;;3.43;;
24826;SDS011;12910;57.690;11.974;2022-12-07T01:22:15;4.27;;;3.33;;
24826;SDS011;12910;57.690;11.974;2022-12-07T01:24:41;3.87;;;3.50;;
24826;SDS011;12910;57.690;11.974;2022-12-07T01:27:06;3.90;;;3.60;;
24826;SDS011;12910;57.690;11.974;2022-12-07T01:29:31;3.33;;;3.03;;
24826;SDS011;12910;57.690;11.974;2022-12-07T01:31:57;4.20;;;3.67;;
24826;SDS011;12910;57.690;11.974;2022-12-07T01:34:22;4.50;;;4.10;;
24826;SDS011;12910;57.690;11.974;2022-12-07T01:36:48;3.93;;;3.30;;
24826;SDS011;12910;57.690;11.974;2022-12-07T01:39:13;3.87;;;3.60;;
24826;SDS011;12910;57.690;11.974;2022-12-07T01:41:39;3.40;;;3.00;;
24826;SDS011;12910;57.690;11.974;2022-12-07T01:44:18;3.97;;;3.67;;
24826;SDS011;12910;57.690;11.974;2022-12-07T01:46:55;8.70;;;4.33;;
24826;SDS011;12910;57.690;11.974;2022-12-07T01:51:47;3.40;;;3.10;;
24826;SDS011;12910;57.690;11.974;2022-12-07T01:54:16;3.93;;;2.53;;
24826;SDS011;12910;57.690;11.974;2022-12-07T01:56:43;4.23;;;3.60;;
24826;SDS011;12910;57.690;11.974;2022-12-07T01:59:16;3.43;;;3.13;;
24826;SDS011;12910;57.690;11.974;2022-12-07T02:01:44;10.00;;;3.20;;
24826;SDS011;12910;57.690;11.974;2022-12-07T02:04:10;3.07;;;2.77;;
24826;SDS011;12910;57.690;11.974;2022-12-07T02:06:37;5.40;;;2.67;;
24826;SDS011;12910;57.690;11.974;2022-12-07T02:09:03;4.77;;;2.80;;
24826;SDS011;12910;57.690;11.974;2022-12-07T02:11:29;3.20;;;2.90;;
24826;SDS011;12910;57.690;11.974;2022-12-07T02:13:54;6.90;;;2.53;;
24826;SDS011;12910;57.690;11.974;2022-12-07T02:22:19;3.00;;;2.70;;
24826;SDS011;12910;57.690;11.974;2022-12-07T02:24:54;4.10;;;2.83;;
24826;SDS011;12910;57.690;11.974;2022-12-07T02:30:16;2.93;;;2.43;;
24826;SDS011;12910;57.690;11.974;2022-12-07T02:32:57;2.80;;;2.60;;
24826;SDS011;12910;57.690;11.974;2022-12-07T02:43:02;3.00;;;2.13;;
24826;SDS011;12910;57.690;11.974;2022-12-07T02:45:36;3.03;;;2.73;;
24826;SDS011;12910;57.690;11.974;2022-12-07T02:48:04;3.43;;;3.13;;
24826;SDS011;12910;57.690;11.974;2022-12-07T02:50:31;10.03;;;3.47;;
24826;SDS011;12910;57.690;11.974;2022-12-07T02:52:57;5.23;;;2.83;;
24826;SDS011;12910;57.690;11.974;2022-12-07T02:55:25;6.57;;;2.77;;
24826;SDS011;12910;57.690;11.974;2022-12-07T03:00:34;3.00;;;2.73;;
24826;SDS011;12910;57.690;11.974;2022-12-07T03:03:10;12.07;;;2.57;;
24826;SDS011;12910;57.690;11.974;2022-12-07T03:11:14;3.03;;;2.83;;
24826;SDS011;12910;57.690;11.974;2022-12-07T03:19:17;11.67;;;2.50;;
24826;SDS011;12910;57.690;11.974;2022-12-07T03:21:46;6.20;;;3.53;;
24826;SDS011;12910;57.690;11.974;2022-12-07T03:24:19;4.13;;;2.50;;
24826;SDS011;12910;57.690;11.974;2022-12-07T03:26:56;3.60;;;3.30;;
24826;SDS011;12910;57.690;11.974;2022-12-07T03:29:38;2.87;;;2.67;;
24826;SDS011;12910;57.690;11.974;2022-12-07T03:32:19;3.63;;;2.83;;
24826;SDS011;12910;57.690;11.974;2022-12-07T03:35:02;3.07;;;2.87;;
24826;SDS011;12910;57.690;11.974;2022-12-07T03:37:33;2.27;;;2.07;;
24826;SDS011;12910;57.690;11.974;2022-12-07T03:42:59;3.90;;;2.90;;
24826;SDS011;12910;57.690;11.974;2022-12-07T03:45:30;3.33;;;3.00;;
24826;SDS011;12910;57.690;11.974;2022-12-07T03:50:56;2.67;;;2.47;;
24826;SDS011;12910;57.690;11.974;2022-12-07T03:53:54;2.60;;;2.40;;
24826;SDS011;12910;57.690;11.974;2022-12-07T03:56:27;3.87;;;2.33;;
24826;SDS011;12910;57.690;11.974;2022-12-07T03:58:54;2.50;;;2.33;;
24826;SDS011;12910;57.690;11.974;2022-12-07T04:01:19;6.77;;;2.73;;
24826;SDS011;12910;57.690;11.974;2022-12-07T04:03:45;8.60;;;2.63;;
24826;SDS011;12910;57.690;11.974;2022-12-07T04:06:10;2.80;;;2.60;;
24826;SDS011;12910;57.690;11.974;2022-12-07T04:08:36;4.33;;;2.63;;
24826;SDS011;12910;57.690;11.974;2022-12-07T04:11:01;2.80;;;2.47;;
24826;SDS011;12910;57.690;11.974;2022-12-07T04:13:27;2.90;;;2.60;;
24826;SDS011;12910;57.690;11.974;2022-12-07T04:15:52;4.70;;;2.40;;
24826;SDS011;12910;57.690;11.974;2022-12-07T04:18:18;9.27;;;2.17;;
24826;SDS011;12910;57.690;11.974;2022-12-07T04:20:43;2.37;;;2.17;;
24826;SDS011;12910;57.690;11.974;2022-12-07T04:23:09;3.00;;;2.10;;
24826;SDS011;12910;57.690;11.974;2022-12-07T04:25:34;2.70;;;2.07;;
24826;SDS011;12910;57.690;11.974;2022-12-07T04:27:59;2.50;;;2.10;;
24826;SDS011;12910;57.690;11.974;2022-12-07T04:30:25;3.30;;;1.87;;
24826;SDS011;12910;57.690;11.974;2022-12-07T04:32:50;2.00;;;1.73;;
24826;SDS011;12910;57.690;11.974;2022-12-07T04:35:15;2.27;;;2.07;;
24826;SDS011;12910;57.690;11.974;2022-12-07T04:37:41;2.13;;;1.70;;
24826;SDS011;12910;57.690;11.974;2022-12-07T04:40:10;7.43;;;1.93;;
24826;SDS011;12910;57.690;11.974;2022-12-07T04:42:36;3.97;;;1.60;;
24826;SDS011;12910;57.690;11.974;2022-12-07T04:45:02;1.90;;;1.57;;
24826;SDS011;12910;57.690;11.974;2022-12-07T04:47:28;5.03;;;1.57;;
24826;SDS011;12910;57.690;11.974;2022-12-07T04:49:53;2.10;;;1.00;;
24826;SDS011;12910;57.690;11.974;2022-12-07T04:52:18;2.57;;;1.20;;
24826;SDS011;12910;57.690;11.974;2022-12-07T04:54:44;6.60;;;0.93;;
24826;SDS011;12910;57.690;11.974;2022-12-07T04:57:09;1.10;;;0.80;;
24826;SDS011;12910;57.690;11.974;2022-12-07T04:59:34;2.00;;;0.97;;
24826;SDS011;12910;57.690;11.974;2022-12-07T05:02:00;1.43;;;0.80;;
24826;SDS011;12910;57.690;11.974;2022-12-07T05:04:25;1.00;;;0.87;;
24826;SDS011;12910;57.690;11.974;2022-12-07T05:06:50;1.87;;;0.77;;
24826;SDS011;12910;57.690;11.974;2022-12-07T05:09:16;1.50;;;0.77;;
24826;SDS011;12910;57.690;11.974;2022-12-07T05:11:41;1.50;;;0.57;;
24826;SDS011;12910;57.690;11.974;2022-12-07T05:16:36;3.73;;;0.90;;
24826;SDS011;12910;57.690;11.974;2022-12-07T05:19:03;1.47;;;0.77;;
24826;SDS011;12910;57.690;11.974;2022-12-07T05:21:28;0.83;;;0.77;;
24826;SDS011;12910;57.690;11.974;2022-12-07T05:23:54;10.37;;;0.80;;
24826;SDS011;12910;57.690;11.974;2022-12-07T05:26:19;0.60;;;0.60;;
24826;SDS011;12910;57.690;11.974;2022-12-07T05:28:44;1.10;;;0.80;;
24826;SDS011;12910;57.690;11.974;2022-12-07T05:31:10;0.83;;;0.60;;
24826;SDS011;12910;57.690;11.974;2022-12-07T05:33:35;0.83;;;0.83;;
24826;SDS011;12910;57.690;11.974;2022-12-07T05:36:01;1.23;;;0.60;;
24826;SDS011;12910;57.690;11.974;2022-12-07T05:38:30;2.10;;;0.80;;
24826;SDS011;12910;57.690;11.974;2022-12-07T05:40:59;1.00;;;0.67;;
24826;SDS011;12910;57.690;11.974;2022-12-07T05:43:26;0.70;;;0.70;;
24826;SDS011;12910;57.690;11.974;2022-12-07T05:45:51;1.10;;;0.60;;
24826;SDS011;12910;57.690;11.974;2022-12-07T05:48:17;2.17;;;0.60;;
24826;SDS011;12910;57.690;11.974;2022-12-07T05:50:42;3.30;;;1.20;;
24826;SDS011;12910;57.690;11.974;2022-12-07T05:53:08;1.60;;;1.30;;
24826;SDS011;12910;57.690;11.974;2022-12-07T05:55:33;1.47;;;1.00;;
24826;SDS011;12910;57.690;11.974;2022-12-07T05:57:58;1.80;;;1.03;;
24826;SDS011;12910;57.690;11.974;2022-12-07T06:00:42;1.30;;;1.20;;
24826;SDS011;12910;57.690;11.974;2022-12-07T06:03:07;2.57;;;1.00;;
24826;SDS011;12910;57.690;11.974;2022-12-07T06:05:33;2.03;;;1.03;;
24826;SDS011;12910;57.690;11.974;2022-12-07T06:07:58;3.73;;;0.90;;
24826;SDS011;12910;57.690;11.974;2022-12-07T06:10:24;1.10;;;0.97;;
24826;SDS011;12910;57.690;11.974;2022-12-07T06:12:49;2.17;;;1.13;;
24826;SDS011;12910;57.690;11.974;2022-12-07T06:15:14;1.40;;;1.30;;
24826;SDS011;12910;57.690;11.974;2022-12-07T06:17:40;1.67;;;1.07;;
24826;SDS011;12910;57.690;11.974;2022-12-07T06:20:06;2.83;;;1.40;;
24826;SDS011;12910;57.690;11.974;2022-12-07T06:22:31;4.60;;;1.30;;
24826;SDS011;12910;57.690;11.974;2022-12-07T06:24:57;1.10;;;1.00;;
24826;SDS011;12910;57.690;11.974;2022-12-07T06:27:22;1.97;;;1.20;;
24826;SDS011;12910;57.690;11.974;2022-12-07T06:29:48;6.03;;;1.23;;
24826;SDS011;12910;57.690;11.974;2022-12-07T06:32:13;1.13;;;0.93;;
24826;SDS011;12910;57.690;11.974;2022-12-07T06:34:38;2.00;;;1.20;;
24826;SDS011;12910;57.690;11.974;2022-12-07T06:37:04;2.77;;;1.37;;
24826;SDS011;12910;57.690;11.974;2022-12-07T06:39:29;1.57;;;1.40;;
24826;SDS011;12910;57.690;11.974;2022-12-07T06:41:55;1.23;;;0.93;;
24826;SDS011;12910;57.690;11.974;2022-12-07T06:44:21;4.70;;;1.27;;
24826;SDS011;12910;57.690;11.974;2022-12-07T06:46:47;1.50;;;1.40;;
24826;SDS011;12910;57.690;11.974;2022-12-07T06:49:13;3.47;;;1.47;;
24826;SDS011;12910;57.690;11.974;2022-12-07T06:51:39;1.57;;;1.10;;
24826;SDS011;12910;57.690;11.974;2022-12-07T06:54:09;3.30;;;1.07;;
24826;SDS011;12910;57.690;11.974;2022-12-07T06:56:36;1.63;;;0.90;;
24826;SDS011;12910;57.690;11.974;2022-12-07T06:59:02;1.23;;;1.13;;
24826;SDS011;12910;57.690;11.974;2022-12-07T07:01:28;4.00;;;1.60;;
24826;SDS011;12910;57.690;11.974;2022-12-07T07:03:53;2.87;;;0.93;;
24826;SDS011;12910;57.690;11.974;2022-12-07T07:06:18;0.60;;;0.60;;
24826;SDS011;12910;57.690;11.974;2022-12-07T07:08:44;1.47;;;1.00;;
24826;SDS011;12910;57.690;11.974;2022-12-07T07:11:11;0.93;;;0.93;;
24826;SDS011;12910;57.690;11.974;2022-12-07T07:13:37;1.67;;;1.03;;
24826;SDS011;12910;57.690;11.974;2022-12-07T07:16:03;3.50;;;0.77;;
24826;SDS011;12910;57.690;11.974;2022-12-07T07:18:28;1.27;;;1.00;;
24826;SDS011;12910;57.690;11.974;2022-12-07T07:20:54;0.50;;;0.50;;
24826;SDS011;12910;57.690;11.974;2022-12-07T07:23:20;0.87;;;0.73;;
24826;SDS011;12910;57.690;11.974;2022-12-07T07:25:46;5.37;;;0.90;;
24826;SDS011;12910;57.690;11.974;2022-12-07T07:28:12;2.40;;;1.00;;
24826;SDS011;12910;57.690;11.974;2022-12-07T07:30:38;0.97;;;0.90;;
24826;SDS011;12910;57.690;11.974;2022-12-07T07:33:03;2.07;;;1.10;;
24826;SDS011;12910;57.690;11.974;2022-12-07T07:35:29;1.17;;;0.93;;
24826;SDS011;12910;57.690;11.974;2022-12-07T07:37:57;2.00;;;0.70;;
24826;SDS011;12910;57.690;11.974;2022-12-07T07:40:22;1.67;;;1.17;;
24826;SDS011;12910;57.690;11.974;2022-12-07T07:42:49;0.70;;;0.70;;
24826;SDS011;12910;57.690;11.974;2022-12-07T07:45:16;1.77;;;0.97;;
24826;SDS011;12910;57.690;11.974;2022-12-07T07:47:41;6.40;;;1.17;;
24826;SDS011;12910;57.690;11.974;2022-12-07T07:50:07;1.17;;;1.03;;
24826;SDS011;12910;57.690;11.974;2022-12-07T07:52:33;1.13;;;0.87;;
24826;SDS011;12910;57.690;11.974;2022-12-07T07:54:58;1.30;;;0.97;;
24826;SDS011;12910;57.690;11.974;2022-12-07T07:57:23;1.10;;;1.00;;
24826;SDS011;12910;57.690;11.974;2022-12-07T07:59:49;1.10;;;0.90;;
24826;SDS011;12910;57.690;11.974;2022-12-07T08:02:16;2.77;;;1.60;;
24826;SDS011;12910;57.690;11.974;2022-12-07T08:04:43;1.63;;;1.17;;
24826;SDS011;12910;57.690;11.974;2022-12-07T08:07:09;2.93;;;1.30;;
24826;SDS011;12910;57.690;11.974;2022-12-07T08:09:35;1.50;;;1.23;;
24826;SDS011;12910;57.690;11.974;2022-12-07T08:12:00;2.27;;;1.20;;
24826;SDS011;12910;57.690;11.974;2022-12-07T08:14:26;4.50;;;1.47;;
24826;SDS011;12910;57.690;11.974;2022-12-07T08:16:53;3.63;;;1.40;;
24826;SDS011;12910;57.690;11.974;2022-12-07T08:19:19;0.83;;;0.83;;
24826;SDS011;12910;57.690;11.974;2022-12-07T08:21:45;1.57;;;1.17;;
24826;SDS011;12910;57.690;11.974;2022-12-07T08:24:10;1.60;;;0.80;;
24826;SDS011;12910;57.690;11.974;2022-12-07T08:26:35;1.57;;;1.10;;
24826;SDS011;12910;57.690;11.974;2022-12-07T08:29:01;0.80;;;0.70;;
24826;SDS011;12910;57.690;11.974;2022-12-07T08:31:26;1.10;;;0.80;;
24826;SDS011;12910;57.690;11.974;2022-12-07T08:33:53;6.30;;;1.00;;
24826;SDS011;12910;57.690;11.974;2022-12-07T08:36:19;1.40;;;1.30;;
24826;SDS011;12910;57.690;11.974;2022-12-07T08:38:46;1.20;;;0.90;;
24826;SDS011;12910;57.690;11.974;2022-12-07T08:41:12;1.10;;;0.90;;
24826;SDS011;12910;57.690;11.974;2022-12-07T08:43:37;0.63;;;0.63;;
24826;SDS011;12910;57.690;11.974;2022-12-07T08:48:46;0.87;;;0.87;;
24826;SDS011;12910;57.690;11.974;2022-12-07T08:51:15;1.27;;;0.90;;
24826;SDS011;12910;57.690;11.974;2022-12-07T08:53:40;1.97;;;0.97;;
24826;SDS011;12910;57.690;11.974;2022-12-07T08:56:07;1.30;;;0.90;;
24826;SDS011;12910;57.690;11.974;2022-12-07T08:58:33;7.60;;;1.27;;
24826;SDS011;12910;57.690;11.974;2022-12-07T09:01:00;2.83;;;0.77;;
24826;SDS011;12910;57.690;11.974;2022-12-07T09:03:26;0.93;;;0.80;;
24826;SDS011;12910;57.690;11.974;2022-12-07T09:05:52;0.57;;;0.57;;
24826;SDS011;12910;57.690;11.974;2022-12-07T09:08:18;1.17;;;0.63;;
24826;SDS011;12910;57.690;11.974;2022-12-07T09:10:44;0.63;;;0.53;;
24826;SDS011;12910;57.690;11.974;2022-12-07T09:13:10;0.70;;;0.60;;
24826;SDS011;12910;57.690;11.974;2022-12-07T09:15:35;0.57;;;0.57;;
24826;SDS011;12910;57.690;11.974;2022-12-07T09:18:01;0.87;;;0.80;;
24826;SDS011;12910;57.690;11.974;2022-12-07T09:20:26;0.80;;;0.60;;
24826;SDS011;12910;57.690;11.974;2022-12-07T09:22:51;0.93;;;0.60;;
24826;SDS011;12910;57.690;11.974;2022-12-07T09:25:17;0.83;;;0.67;;
24826;SDS011;12910;57.690;11.974;2022-12-07T09:27:42;2.97;;;0.60;;
24826;SDS011;12910;57.690;11.974;2022-12-07T09:30:08;1.67;;;0.87;;
24826;SDS011;12910;57.690;11.974;2022-12-07T09:32:33;0.57;;;0.57;;
24826;SDS011;12910;57.690;11.974;2022-12-07T09:34:59;4.23;;;0.77;;
24826;SDS011;12910;57.690;11.974;2022-12-07T09:37:24;0.70;;;0.60;;
24826;SDS011;12910;57.690;11.974;2022-12-07T09:39:49;0.77;;;0.70;;
24826;SDS011;12910;57.690;11.974;2022-12-07T09:42:26;5.83;;;1.10;;
24826;SDS011;12910;57.690;11.974;2022-12-07T09:44:55;2.03;;;0.80;;
24826;SDS011;12910;57.690;11.974;2022-12-07T09:47:21;1.57;;;0.87;;
24826;SDS011;12910;57.690;11.974;2022-12-07T09:49:47;5.20;;;0.60;;
24826;SDS011;12910;57.690;11.974;2022-12-07T09:54:45;1.87;;;1.17;;
24826;SDS011;12910;57.690;11.974;2022-12-07T09:57:13;1.63;;;0.80;;
24826;SDS011;12910;57.690;11.974;2022-12-07T09:59:38;1.03;;;0.70;;
24826;SDS011;12910;57.690;11.974;2022-12-07T10:04:58;0.67;;;0.67;;
24826;SDS011;12910;57.690;11.974;2022-12-07T10:07:24;2.23;;;0.70;;
24826;SDS011;12910;57.690;11.974;2022-12-07T10:09:49;2.30;;;0.83;;
24826;SDS011;12910;57.690;11.974;2022-12-07T10:12:15;1.80;;;1.27;;
24826;SDS011;12910;57.690;11.974;2022-12-07T10:14:52;5.50;;;1.30;;
24826;SDS011;12910;57.690;11.974;2022-12-07T10:22:36;5.13;;;1.03;;
24826;SDS011;12910;57.690;11.974;2022-12-07T10:25:09;0.90;;;0.90;;
24826;SDS011;12910;57.690;11.974;2022-12-07T10:27:43;1.13;;;0.70;;
24826;SDS011;12910;57.690;11.974;2022-12-07T10:30:21;2.37;;;0.87;;
24826;SDS011;12910;57.690;11.974;2022-12-07T10:32:47;1.43;;;0.90;;
24826;SDS011;12910;57.690;11.974;2022-12-07T10:35:20;1.67;;;0.83;;
24826;SDS011;12910;57.690;11.974;2022-12-07T10:37:49;5.07;;;1.37;;
24826;SDS011;12910;57.690;11.974;2022-12-07T10:40:26;1.43;;;1.10;;
24826;SDS011;12910;57.690;11.974;2022-12-07T10:48:31;1.90;;;1.37;;
24826;SDS011;12910;57.690;11.974;2022-12-07T10:51:05;1.43;;;1.00;;
24826;SDS011;12910;57.690;11.974;2022-12-07T10:53:48;0.97;;;0.93;;
24826;SDS011;12910;57.690;11.974;2022-12-07T10:56:26;5.33;;;0.97;;
24826;SDS011;12910;57.690;11.974;2022-12-07T10:59:08;1.87;;;1.17;;
24826;SDS011;12910;57.690;11.974;2022-12-07T11:17:51;4.57;;;1.30;;
24826;SDS011;12910;57.690;11.974;2022-12-07T11:23:24;2.20;;;0.97;;
24826;SDS011;12910;57.690;11.974;2022-12-07T11:26:09;7.77;;;0.90;;
24826;SDS011;12910;57.690;11.974;2022-12-07T11:37:01;7.90;;;0.90;;
24826;SDS011;12910;57.690;11.974;2022-12-07T11:39:50;1.27;;;0.80;;
24826;SDS011;12910;57.690;11.974;2022-12-07T11:42:21;4.23;;;1.13;;
24826;SDS011;12910;57.690;11.974;2022-12-07T11:47:38;2.97;;;1.47;;
24826;SDS011;12910;57.690;11.974;2022-12-07T11:50:31;1.00;;;0.60;;
24826;SDS011;12910;57.690;11.974;2022-12-07T11:55:46;0.70;;;0.70;;
24826;SDS011;12910;57.690;11.974;2022-12-07T12:03:42;1.37;;;0.87;;
24826;SDS011;12910;57.690;11.974;2022-12-07T12:06:11;1.70;;;0.70;;
24826;SDS011;12910;57.690;11.974;2022-12-07T12:08:48;0.83;;;0.70;;
24826;SDS011;12910;57.690;11.974;2022-12-07T12:17:26;3.93;;;0.93;;
24826;SDS011;12910;57.690;11.974;2022-12-07T12:22:39;3.27;;;0.50;;
24826;SDS011;12910;57.690;11.974;2022-12-07T12:25:18;2.47;;;1.00;;
24826;SDS011;12910;57.690;11.974;2022-12-07T12:27:48;1.30;;;1.00;;
24826;SDS011;12910;57.690;11.974;2022-12-07T12:30:26;1.70;;;1.10;;
24826;SDS011;12910;57.690;11.974;2022-12-07T12:33:12;2.17;;;0.67;;
24826;SDS011;12910;57.690;11.974;2022-12-07T12:35:42;3.43;;;0.70;;
24826;SDS011;12910;57.690;11.974;2022-12-07T12:40:59;0.60;;;0.60;;
24826;SDS011;12910;57.690;11.974;2022-12-07T12:51:47;6.53;;;1.30;;
24826;SDS011;12910;57.690;11.974;2022-12-07T13:12:55;0.87;;;0.80;;
24826;SDS011;12910;57.690;11.974;2022-12-07T13:20:56;1.37;;;0.70;;
24826;SDS011;12910;57.690;11.974;2022-12-07T13:25:59;8.57;;;1.00;;
24826;SDS011;12910;57.690;11.974;2022-12-07T13:28:26;1.80;;;0.73;;
24826;SDS011;12910;57.690;11.974;2022-12-07T13:31:03;1.70;;;1.10;;
24826;SDS011;12910;57.690;11.974;2022-12-07T13:33:36;1.37;;;0.97;;
24826;SDS011;12910;57.690;11.974;2022-12-07T13:36:02;7.07;;;1.30;;
24826;SDS011;12910;57.690;11.974;2022-12-07T13:38:30;3.90;;;0.90;;
24826;SDS011;12910;57.690;11.974;2022-12-07T13:41:02;0.83;;;0.73;;
24826;SDS011;12910;57.690;11.974;2022-12-07T13:46:13;1.50;;;1.10;;
24826;SDS011;12910;57.690;11.974;2022-12-07T13:48:49;2.47;;;1.07;;
24826;SDS011;12910;57.690;11.974;2022-12-07T13:51:25;1.80;;;1.00;;
24826;SDS011;12910;57.690;11.974;2022-12-07T13:53:53;5.63;;;1.20;;
24826;SDS011;12910;57.690;11.974;2022-12-07T13:56:39;2.20;;;1.33;;
24826;SDS011;12910;57.690;11.974;2022-12-07T13:59:16;2.80;;;0.73;;
24826;SDS011;12910;57.690;11.974;2022-12-07T14:01:52;2.27;;;0.90;;
24826;SDS011;12910;57.690;11.974;2022-12-07T14:06:52;2.07;;;0.87;;
24826;SDS011;12910;57.690;11.974;2022-12-07T14:09:18;1.20;;;0.77;;
24826;SDS011;12910;57.690;11.974;2022-12-07T14:11:47;1.33;;;1.10;;
24826;SDS011;12910;57.690;11.974;2022-12-07T14:14:16;5.63;;;1.00;;
24826;SDS011;12910;57.690;11.974;2022-12-07T14:16:54;0.93;;;0.70;;
24826;SDS011;12910;57.690;11.974;2022-12-07T14:19:41;4.33;;;0.97;;
24826;SDS011;12910;57.690;11.974;2022-12-07T14:24:58;5.47;;;1.00;;
24826;SDS011;12910;57.690;11.974;2022-12-07T14:27:47;4.67;;;0.70;;
24826;SDS011;12910;57.690;11.974;2022-12-07T14:30:35;2.60;;;1.20;;
24826;SDS011;12910;57.690;11.974;2022-12-07T14:33:02;2.00;;;1.03;;
24826;SDS011;12910;57.690;11.974;2022-12-07T14:35:29;2.43;;;0.87;;
24826;SDS011;12910;57.690;11.974;2022-12-07T14:37:56;2.17;;;0.90;;
24826;SDS011;12910;57.690;11.974;2022-12-07T14:40:26;1.00;;;0.83;;
24826;SDS011;12910;57.690;11.974;2022-12-07T14:42:54;5.90;;;1.00;;
24826;SDS011;12910;57.690;11.974;2022-12-07T14:45:26;6.63;;;1.10;;
24826;SDS011;12910;57.690;11.974;2022-12-07T14:47:52;4.07;;;1.33;;
24826;SDS011;12910;57.690;11.974;2022-12-07T14:50:18;2.63;;;1.20;;
24826;SDS011;12910;57.690;11.974;2022-12-07T14:52:48;3.57;;;1.37;;
24826;SDS011;12910;57.690;11.974;2022-12-07T14:55:24;1.83;;;1.13;;
24826;SDS011;12910;57.690;11.974;2022-12-07T14:57:51;0.93;;;0.83;;
24826;SDS011;12910;57.690;11.974;2022-12-07T15:00:17;6.87;;;0.87;;
24826;SDS011;12910;57.690;11.974;2022-12-07T15:02:44;3.30;;;1.13;;
24826;SDS011;12910;57.690;11.974;2022-12-07T15:05:11;2.97;;;0.90;;
24826;SDS011;12910;57.690;11.974;2022-12-07T15:07:36;1.10;;;1.00;;
24826;SDS011;12910;57.690;11.974;2022-12-07T15:10:02;2.37;;;1.20;;
24826;SDS011;12910;57.690;11.974;2022-12-07T15:12:28;3.57;;;1.67;;
24826;SDS011;12910;57.690;11.974;2022-12-07T15:14:53;2.80;;;1.00;;
24826;SDS011;12910;57.690;11.974;2022-12-07T15:17:19;2.80;;;1.20;;
24826;SDS011;12910;57.690;11.974;2022-12-07T15:19:44;2.13;;;1.53;;
24826;SDS011;12910;57.690;11.974;2022-12-07T15:22:09;6.13;;;1.10;;
24826;SDS011;12910;57.690;11.974;2022-12-07T15:24:36;3.23;;;1.63;;
24826;SDS011;12910;57.690;11.974;2022-12-07T15:27:01;0.80;;;0.80;;
24826;SDS011;12910;57.690;11.974;2022-12-07T15:29:27;1.40;;;1.30;;
24826;SDS011;12910;57.690;11.974;2022-12-07T15:31:52;8.50;;;1.60;;
24826;SDS011;12910;57.690;11.974;2022-12-07T15:34:18;1.80;;;1.13;;
24826;SDS011;12910;57.690;11.974;2022-12-07T15:36:43;5.37;;;1.17;;
24826;SDS011;12910;57.690;11.974;2022-12-07T15:39:09;1.07;;;0.93;;
24826;SDS011;12910;57.690;11.974;2022-12-07T15:41:35;1.47;;;1.30;;
24826;SDS011;12910;57.690;11.974;2022-12-07T15:44:00;3.63;;;1.47;;
24826;SDS011;12910;57.690;11.974;2022-12-07T15:46:44;3.20;;;1.30;;
24826;SDS011;12910;57.690;11.974;2022-12-07T15:49:14;3.67;;;1.30;;
24826;SDS011;12910;57.690;11.974;2022-12-07T15:51:41;1.80;;;1.10;;
24826;SDS011;12910;57.690;11.974;2022-12-07T15:54:29;1.77;;;0.70;;
24826;SDS011;12910;57.690;11.974;2022-12-07T15:56:54;1.20;;;1.10;;
24826;SDS011;12910;57.690;11.974;2022-12-07T15:59:20;1.43;;;1.23;;
24826;SDS011;12910;57.690;11.974;2022-12-07T16:01:45;8.03;;;1.40;;
24826;SDS011;12910;57.690;11.974;2022-12-07T16:04:11;1.47;;;1.23;;
24826;SDS011;12910;57.690;11.974;2022-12-07T16:06:36;2.03;;;1.47;;
24826;SDS011;12910;57.690;11.974;2022-12-07T16:09:02;4.43;;;1.30;;
24826;SDS011;12910;57.690;11.974;2022-12-07T16:11:28;2.03;;;1.20;;
24826;SDS011;12910;57.690;11.974;2022-12-07T16:13:54;4.03;;;1.10;;
24826;SDS011;12910;57.690;11.974;2022-12-07T16:16:20;1.77;;;1.20;;
24826;SDS011;12910;57.690;11.974;2022-12-07T16:18:47;1.10;;;0.90;;
24826;SDS011;12910;57.690;11.974;2022-12-07T16:21:14;2.07;;;1.23;;
24826;SDS011;12910;57.690;11.974;2022-12-07T16:23:40;7.20;;;1.27;;
24826;SDS011;12910;57.690;11.974;2022-12-07T16:26:13;3.43;;;1.13;;
24826;SDS011;12910;57.690;11.974;2022-12-07T16:28:40;2.10;;;1.17;;
24826;SDS011;12910;57.690;11.974;2022-12-07T16:31:16;2.17;;;1.57;;
24826;SDS011;12910;57.690;11.974;2022-12-07T16:33:43;2.67;;;1.57;;
24826;SDS011;12910;57.690;11.974;2022-12-07T16:36:10;2.57;;;2.03;;
24826;SDS011;12910;57.690;11.974;2022-12-07T16:38:37;2.27;;;0.97;;
24826;SDS011;12910;57.690;11.974;2022-12-07T16:41:03;1.63;;;0.90;;
24826;SDS011;12910;57.690;11.974;2022-12-07T16:43:29;3.30;;;1.50;;
24826;SDS011;12910;57.690;11.974;2022-12-07T16:45:55;5.20;;;1.33;;
24826;SDS011;12910;57.690;11.974;2022-12-07T16:48:20;2.13;;;1.50;;
24826;SDS011;12910;57.690;11.974;2022-12-07T16:50:46;7.53;;;1.50;;
24826;SDS011;12910;57.690;11.974;2022-12-07T16:53:12;1.83;;;1.33;;
24826;SDS011;12910;57.690;11.974;2022-12-07T16:55:40;1.70;;;1.60;;
24826;SDS011;12910;57.690;11.974;2022-12-07T16:58:10;2.50;;;1.13;;
24826;SDS011;12910;57.690;11.974;2022-12-07T17:00:37;4.23;;;1.83;;
24826;SDS011;12910;57.690;11.974;2022-12-07T17:03:02;1.57;;;1.47;;
24826;SDS011;12910;57.690;11.974;2022-12-07T17:05:28;4.10;;;1.57;;
24826;SDS011;12910;57.690;11.974;2022-12-07T17:07:54;4.30;;;2.03;;
24826;SDS011;12910;57.690;11.974;2022-12-07T17:10:21;1.90;;;1.70;;
24826;SDS011;12910;57.690;11.974;2022-12-07T17:12:46;2.27;;;1.50;;